Terminal Aerodrome Forecast
Issued by NWS

Home | Current Version | Previous Version | Text Only | Print | Product List | Glossary On
Versions: 1 2 3 4 5 6 7 8 9 10 11 12 13 14 15 16 17 18 19 20 21
000
FTUS42 KJAX 241900 AAA
TAFCRG
TAF AMD
KCRG 241904Z 2419/2518 21015G25KT P6SM FEW035
     FM242100 21010G16KT P6SM VCSH BKN025
     FM250000 21006KT P6SM -SHRA OVC025
     FM250300 21004KT 5SM -RADZ BR OVC015
     FM250600 24004KT 2SM -RADZ BR OVC005
     FM251200 32004KT 2SM -RADZ BR OVC005=

USA.gov is the U.S. government's official web portal to all federal, state and local government web resources and services.